Impacts TAF Board
For situational awareness. Not to be used for flight planning purposes.
IDs:

KMIA - Miami Intl, FL, US

Issued at 2124 UTC 18 Dec 2018
Updated at 2255 UTC 18 Dec 2018
Potential Impact None Slight Moderate High
Time<<19/11Z 19/12Z 19/13Z 19/14Z 19/15Z 19/16Z 19/17Z 19/18Z 19/19Z 19/20Z 19/21Z 19/22Z 19/23Z>>
Type PRVL PRVL PRVL PRVL PRVL PRVL PRVL PRVL PRVL PRVL PRVL PRVL PRVL
VIS >6 >6 >6 >6 >6 >6 >6 >6 >6 >6 >6 >6 >6
CIG -- -- -- -- -- -- -- 50 50 50 50 50 50
Cover SCT SCT SCT SCT SCT SCT SCT BKN BKN BKN BKN BKN BKN
FltCat VFR VFR VFR VFR VFR VFR VFR VFR VFR VFR VFR VFR VFR
WX -- -- -- -- -- -- -- -- -- -- -- -- --
WDir VRB VRB VRB VRB 70 70 70 120 120 120 120 120 120
WSpd 3 3 3 3 5 5 5 10 10 10 10 10 10
WGst -- -- -- -- -- -- -- -- -- -- -- -- --
Raw TAF
KMIA 182124Z 1821/1924 12005KT P6SM FEW250
  FM182300 VRB03KT P6SM FEW030 SCT250
  FM191500 07005KT P6SM SCT030 SCT050
  FM191800 12010KT P6SM SCT030 BKN050


METAR Board
Radar Display
Forecast Discussion
For situational awareness. Not to be used for flight planning purposes.